sensor_id;sensor_type;location;lat;lon;timestamp;pressure;altitude;pressure_sealevel;temperature;humidity
12247;BME280;6186;52.022;4.692;2022-12-19T00:01:55;101792.66;;;2.19;100.00
12247;BME280;6186;52.022;4.692;2022-12-19T00:04:20;101806.63;;;2.24;100.00
12247;BME280;6186;52.022;4.692;2022-12-19T00:06:45;101785.00;;;2.25;100.00
12247;BME280;6186;52.022;4.692;2022-12-19T00:09:11;101782.41;;;2.25;100.00
12247;BME280;6186;52.022;4.692;2022-12-19T00:11:38;101780.78;;;2.28;100.00
12247;BME280;6186;52.022;4.692;2022-12-19T00:14:04;101792.91;;;2.29;100.00
12247;BME280;6186;52.022;4.692;2022-12-19T00:16:30;101792.97;;;2.31;100.00
12247;BME280;6186;52.022;4.692;2022-12-19T00:18:57;101785.19;;;2.32;100.00
12247;BME280;6186;52.022;4.692;2022-12-19T00:21:25;101799.13;;;2.36;100.00
12247;BME280;6186;52.022;4.692;2022-12-19T00:23:51;101786.13;;;2.36;100.00
12247;BME280;6186;52.022;4.692;2022-12-19T00:26:26;101777.56;;;2.38;100.00
12247;BME280;6186;52.022;4.692;2022-12-19T00:28:57;101774.13;;;2.41;100.00
12247;BME280;6186;52.022;4.692;2022-12-19T00:31:24;101768.13;;;2.43;100.00
12247;BME280;6186;52.022;4.692;2022-12-19T00:33:50;101759.56;;;2.47;100.00
12247;BME280;6186;52.022;4.692;2022-12-19T00:36:19;101746.63;;;2.50;100.00
12247;BME280;6186;52.022;4.692;2022-12-19T00:38:45;101744.97;;;2.54;100.00
12247;BME280;6186;52.022;4.692;2022-12-19T00:41:17;101747.66;;;2.57;100.00
12247;BME280;6186;52.022;4.692;2022-12-19T00:43:43;101737.25;;;2.57;100.00
12247;BME280;6186;52.022;4.692;2022-12-19T00:46:10;101732.22;;;2.64;100.00
12247;BME280;6186;52.022;4.692;2022-12-19T00:48:37;101731.34;;;2.64;100.00
12247;BME280;6186;52.022;4.692;2022-12-19T00:51:10;101728.94;;;2.74;100.00
12247;BME280;6186;52.022;4.692;2022-12-19T00:53:36;101721.25;;;2.79;100.00
12247;BME280;6186;52.022;4.692;2022-12-19T00:56:04;101715.25;;;2.81;100.00
12247;BME280;6186;52.022;4.692;2022-12-19T00:58:30;101716.19;;;2.85;100.00
12247;BME280;6186;52.022;4.692;2022-12-19T01:00:55;101720.66;;;2.94;100.00
12247;BME280;6186;52.022;4.692;2022-12-19T01:03:22;101716.44;;;2.97;100.00
12247;BME280;6186;52.022;4.692;2022-12-19T01:05:49;101708.69;;;3.00;100.00
12247;BME280;6186;52.022;4.692;2022-12-19T01:08:14;101705.31;;;3.06;100.00
12247;BME280;6186;52.022;4.692;2022-12-19T01:10:44;101697.50;;;3.04;100.00
12247;BME280;6186;52.022;4.692;2022-12-19T01:13:10;101703.66;;;3.11;100.00
12247;BME280;6186;52.022;4.692;2022-12-19T01:15:38;101697.66;;;3.13;100.00
12247;BME280;6186;52.022;4.692;2022-12-19T01:18:03;101700.31;;;3.16;100.00
12247;BME280;6186;52.022;4.692;2022-12-19T01:20:29;101697.75;;;3.18;100.00
12247;BME280;6186;52.022;4.692;2022-12-19T01:22:54;101696.88;;;3.17;100.00
12247;BME280;6186;52.022;4.692;2022-12-19T01:25:19;101685.69;;;3.23;100.00
12247;BME280;6186;52.022;4.692;2022-12-19T01:27:45;101688.31;;;3.24;100.00
12247;BME280;6186;52.022;4.692;2022-12-19T01:30:10;101682.28;;;3.25;100.00
12247;BME280;6186;52.022;4.692;2022-12-19T01:32:36;101682.31;;;3.27;100.00
12247;BME280;6186;52.022;4.692;2022-12-19T01:35:02;101678.81;;;3.26;100.00
12247;BME280;6186;52.022;4.692;2022-12-19T01:37:27;101662.28;;;3.23;100.00
12247;BME280;6186;52.022;4.692;2022-12-19T01:39:53;101669.34;;;3.31;100.00
12247;BME280;6186;52.022;4.692;2022-12-19T01:42:20;101666.81;;;3.34;100.00
12247;BME280;6186;52.022;4.692;2022-12-19T01:47:42;101664.28;;;3.37;100.00
12247;BME280;6186;52.022;4.692;2022-12-19T01:50:13;101667.75;;;3.38;100.00
12247;BME280;6186;52.022;4.692;2022-12-19T01:52:40;101676.47;;;3.40;100.00
12247;BME280;6186;52.022;4.692;2022-12-19T01:55:06;101664.28;;;3.39;100.00
12247;BME280;6186;52.022;4.692;2022-12-19T01:57:33;101659.97;;;3.39;100.00
12247;BME280;6186;52.022;4.692;2022-12-19T01:59:59;101657.38;;;3.41;100.00
12247;BME280;6186;52.022;4.692;2022-12-19T02:02:37;101658.28;;;3.41;100.00
12247;BME280;6186;52.022;4.692;2022-12-19T02:05:05;101652.25;;;3.44;100.00
12247;BME280;6186;52.022;4.692;2022-12-19T02:07:32;101657.47;;;3.45;100.00
12247;BME280;6186;52.022;4.692;2022-12-19T02:09:58;101647.03;;;3.44;100.00
12247;BME280;6186;52.022;4.692;2022-12-19T02:12:29;101647.16;;;3.51;100.00
12247;BME280;6186;52.022;4.692;2022-12-19T02:14:56;101646.34;;;3.54;100.00
12247;BME280;6186;52.022;4.692;2022-12-19T02:17:58;101636.81;;;3.56;100.00
12247;BME280;6186;52.022;4.692;2022-12-19T02:26:47;101608.38;;;3.66;100.00
12247;BME280;6186;52.022;4.692;2022-12-19T02:35:37;101601.59;;;3.77;100.00
12247;BME280;6186;52.022;4.692;2022-12-19T02:38:09;101581.66;;;3.79;100.00
12247;BME280;6186;52.022;4.692;2022-12-19T02:40:41;101587.78;;;3.84;100.00
12247;BME280;6186;52.022;4.692;2022-12-19T02:43:11;101586.97;;;3.87;100.00
12247;BME280;6186;52.022;4.692;2022-12-19T02:45:40;101574.84;;;3.88;100.00
12247;BME280;6186;52.022;4.692;2022-12-19T02:48:07;101571.44;;;3.95;100.00
12247;BME280;6186;52.022;4.692;2022-12-19T02:50:38;101573.22;;;3.97;100.00
12247;BME280;6186;52.022;4.692;2022-12-19T02:53:04;101584.56;;;4.01;100.00
12247;BME280;6186;52.022;4.692;2022-12-19T02:55:34;101568.94;;;4.04;100.00
12247;BME280;6186;52.022;4.692;2022-12-19T02:58:34;101562.94;;;4.08;100.00
12247;BME280;6186;52.022;4.692;2022-12-19T03:06:55;101555.22;;;4.17;100.00
12247;BME280;6186;52.022;4.692;2022-12-19T03:09:27;101550.88;;;4.16;100.00
12247;BME280;6186;52.022;4.692;2022-12-19T03:12:03;101551.81;;;4.22;100.00
12247;BME280;6186;52.022;4.692;2022-12-19T03:14:31;101563.13;;;4.24;100.00
12247;BME280;6186;52.022;4.692;2022-12-19T03:17:02;101540.56;;;4.23;100.00
12247;BME280;6186;52.022;4.692;2022-12-19T03:19:28;101544.06;;;4.25;100.00
12247;BME280;6186;52.022;4.692;2022-12-19T03:21:54;101555.41;;;4.32;100.00
12247;BME280;6186;52.022;4.692;2022-12-19T03:24:20;101543.28;;;4.35;100.00
12247;BME280;6186;52.022;4.692;2022-12-19T03:26:53;101545.06;;;4.38;100.00
12247;BME280;6186;52.022;4.692;2022-12-19T03:31:54;101534.69;;;4.42;100.00
12247;BME280;6186;52.022;4.692;2022-12-19T03:37:06;101520.78;;;4.42;100.00
12247;BME280;6186;52.022;4.692;2022-12-19T03:39:34;101538.22;;;4.49;100.00
12247;BME280;6186;52.022;4.692;2022-12-19T03:42:01;101523.47;;;4.48;100.00
12247;BME280;6186;52.022;4.692;2022-12-19T03:44:48;101540.91;;;4.55;100.00
12247;BME280;6186;52.022;4.692;2022-12-19T03:47:19;101538.34;;;4.58;100.00
12247;BME280;6186;52.022;4.692;2022-12-19T03:49:47;101538.34;;;4.61;100.00
12247;BME280;6186;52.022;4.692;2022-12-19T03:54:53;101533.22;;;4.67;100.00
12247;BME280;6186;52.022;4.692;2022-12-19T03:57:31;101538.44;;;4.70;100.00
12247;BME280;6186;52.022;4.692;2022-12-19T04:00:06;101530.69;;;4.76;100.00
12247;BME280;6186;52.022;4.692;2022-12-19T04:02:35;101516.75;;;4.74;100.00
12247;BME280;6186;52.022;4.692;2022-12-19T04:05:09;101529.03;;;4.87;100.00
12247;BME280;6186;52.022;4.692;2022-12-19T04:07:37;101509.97;;;4.91;100.00
12247;BME280;6186;52.022;4.692;2022-12-19T04:10:05;101516.97;;;4.97;100.00
12247;BME280;6186;52.022;4.692;2022-12-19T04:12:36;101517.84;;;5.00;100.00
12247;BME280;6186;52.022;4.692;2022-12-19T04:15:03;101515.28;;;5.03;100.00
12247;BME280;6186;52.022;4.692;2022-12-19T04:17:38;101508.34;;;5.07;100.00
12247;BME280;6186;52.022;4.692;2022-12-19T04:20:07;101503.16;;;5.10;100.00
12247;BME280;6186;52.022;4.692;2022-12-19T04:23:02;101509.31;;;5.19;100.00
12247;BME280;6186;52.022;4.692;2022-12-19T04:25:33;101505.84;;;5.20;100.00
12247;BME280;6186;52.022;4.692;2022-12-19T04:28:14;101517.19;;;5.28;100.00
12247;BME280;6186;52.022;4.692;2022-12-19T04:30:43;101505.88;;;5.26;100.00
12247;BME280;6186;52.022;4.692;2022-12-19T04:33:09;101513.78;;;5.37;100.00
12247;BME280;6186;52.022;4.692;2022-12-19T04:35:34;101524.25;;;5.40;100.00
12247;BME280;6186;52.022;4.692;2022-12-19T04:38:00;101518.19;;;5.44;100.00
12247;BME280;6186;52.022;4.692;2022-12-19T04:40:25;101512.13;;;5.46;100.00
12247;BME280;6186;52.022;4.692;2022-12-19T04:42:50;101495.59;;;5.50;100.00
12247;BME280;6186;52.022;4.692;2022-12-19T04:45:16;101511.28;;;5.53;100.00
12247;BME280;6186;52.022;4.692;2022-12-19T04:47:41;101509.53;;;5.54;100.00
12247;BME280;6186;52.022;4.692;2022-12-19T04:50:08;101501.75;;;5.60;100.00
12247;BME280;6186;52.022;4.692;2022-12-19T04:52:34;101507.88;;;5.63;100.00
12247;BME280;6186;52.022;4.692;2022-12-19T04:54:59;101513.09;;;5.66;100.00
12247;BME280;6186;52.022;4.692;2022-12-19T04:57:28;101492.22;;;5.69;100.00
12247;BME280;6186;52.022;4.692;2022-12-19T04:59:54;101498.34;;;5.73;100.00
12247;BME280;6186;52.022;4.692;2022-12-19T05:02:19;101501.84;;;5.77;100.00
12247;BME280;6186;52.022;4.692;2022-12-19T05:04:44;101498.38;;;5.81;100.00
12247;BME280;6186;52.022;4.692;2022-12-19T05:07:10;101488.84;;;5.86;100.00
12247;BME280;6186;52.022;4.692;2022-12-19T05:09:38;101486.25;;;5.90;100.00
12247;BME280;6186;52.022;4.692;2022-12-19T05:12:03;101497.59;;;5.95;100.00
12247;BME280;6186;52.022;4.692;2022-12-19T05:14:29;101479.34;;;6.01;100.00
12247;BME280;6186;52.022;4.692;2022-12-19T05:16:54;101485.44;;;6.03;100.00
12247;BME280;6186;52.022;4.692;2022-12-19T05:19:20;101480.25;;;6.11;100.00
12247;BME280;6186;52.022;4.692;2022-12-19T05:21:45;101461.94;;;6.11;100.00
12247;BME280;6186;52.022;4.692;2022-12-19T05:24:10;101485.47;;;6.21;100.00
12247;BME280;6186;52.022;4.692;2022-12-19T05:26:36;101499.47;;;6.28;100.00
12247;BME280;6186;52.022;4.692;2022-12-19T05:29:01;101468.09;;;6.31;100.00
12247;BME280;6186;52.022;4.692;2022-12-19T05:31:27;101393.00;;;5.82;100.00
12247;BME280;6186;52.022;4.692;2022-12-19T05:33:52;101489.88;;;6.42;100.00
12247;BME280;6186;52.022;4.692;2022-12-19T05:36:18;101477.72;;;6.47;100.00
12247;BME280;6186;52.022;4.692;2022-12-19T05:38:44;101466.38;;;6.39;100.00
12247;BME280;6186;52.022;4.692;2022-12-19T05:41:15;101479.47;;;6.54;100.00
12247;BME280;6186;52.022;4.692;2022-12-19T05:43:42;101501.25;;;6.56;100.00
12247;BME280;6186;52.022;4.692;2022-12-19T05:46:08;101491.66;;;6.59;100.00
12247;BME280;6186;52.022;4.692;2022-12-19T05:48:34;101483.81;;;6.62;100.00
12247;BME280;6186;52.022;4.692;2022-12-19T05:51:01;101501.28;;;6.62;100.00
12247;BME280;6186;52.022;4.692;2022-12-19T05:53:26;101484.69;;;6.64;100.00
12247;BME280;6186;52.022;4.692;2022-12-19T05:56:01;101482.94;;;6.66;100.00
12247;BME280;6186;52.022;4.692;2022-12-19T05:58:27;101484.69;;;6.71;100.00
12247;BME280;6186;52.022;4.692;2022-12-19T06:00:52;101489.06;;;6.73;100.00
12247;BME280;6186;52.022;4.692;2022-12-19T06:03:17;101489.06;;;6.75;100.00
12247;BME280;6186;52.022;4.692;2022-12-19T06:05:43;101496.94;;;6.79;100.00
12247;BME280;6186;52.022;4.692;2022-12-19T06:08:09;101497.81;;;6.84;100.00
12247;BME280;6186;52.022;4.692;2022-12-19T06:10:35;101490.81;;;6.86;100.00
12247;BME280;6186;52.022;4.692;2022-12-19T06:13:00;101494.31;;;6.88;100.00
12247;BME280;6186;52.022;4.692;2022-12-19T06:15:27;101490.81;;;6.89;100.00
12247;BME280;6186;52.022;4.692;2022-12-19T06:17:53;101496.06;;;6.92;100.00
12247;BME280;6186;52.022;4.692;2022-12-19T06:20:18;101496.94;;;6.94;100.00
12247;BME280;6186;52.022;4.692;2022-12-19T06:22:44;101479.50;;;6.98;100.00
12247;BME280;6186;52.022;4.692;2022-12-19T06:25:09;101494.31;;;7.03;100.00
12247;BME280;6186;52.022;4.692;2022-12-19T06:27:34;101483.84;;;7.06;100.00
12247;BME280;6186;52.022;4.692;2022-12-19T06:30:00;101481.22;;;7.06;100.00
12247;BME280;6186;52.022;4.692;2022-12-19T06:32:25;101481.25;;;7.08;100.00
12247;BME280;6186;52.022;4.692;2022-12-19T06:34:50;101466.38;;;7.08;100.00
12247;BME280;6186;52.022;4.692;2022-12-19T06:37:16;101477.72;;;7.12;100.00
12247;BME280;6186;52.022;4.692;2022-12-19T06:39:41;101470.75;;;7.12;100.00
12247;BME280;6186;52.022;4.692;2022-12-19T06:42:08;101461.16;;;7.14;100.00
12247;BME280;6186;52.022;4.692;2022-12-19T06:44:50;101475.13;;;7.15;100.00
12247;BME280;6186;52.022;4.692;2022-12-19T06:47:16;101466.38;;;7.19;100.00
12247;BME280;6186;52.022;4.692;2022-12-19T06:49:42;101483.81;;;7.21;100.00
12247;BME280;6186;52.022;4.692;2022-12-19T06:52:07;101479.47;;;7.22;100.00
12247;BME280;6186;52.022;4.692;2022-12-19T06:54:32;101492.56;;;7.26;100.00
12247;BME280;6186;52.022;4.692;2022-12-19T06:56:58;101485.56;;;7.27;100.00
12247;BME280;6186;52.022;4.692;2022-12-19T06:59:23;101488.16;;;7.27;100.00
12247;BME280;6186;52.022;4.692;2022-12-19T07:02:14;101480.31;;;7.31;100.00
12247;BME280;6186;52.022;4.692;2022-12-19T07:04:49;101485.53;;;7.34;100.00
12247;BME280;6186;52.022;4.692;2022-12-19T07:07:15;101487.28;;;7.32;100.00
12247;BME280;6186;52.022;4.692;2022-12-19T07:09:41;101501.25;;;7.37;100.00
12247;BME280;6186;52.022;4.692;2022-12-19T07:12:06;101493.41;;;7.39;100.00
12247;BME280;6186;52.022;4.692;2022-12-19T07:14:32;101496.88;;;7.41;100.00
12247;BME280;6186;52.022;4.692;2022-12-19T07:17:00;101496.88;;;7.42;100.00
12247;BME280;6186;52.022;4.692;2022-12-19T07:19:27;101497.75;;;7.44;100.00
12247;BME280;6186;52.022;4.692;2022-12-19T07:21:55;101503.84;;;7.46;100.00
12247;BME280;6186;52.022;4.692;2022-12-19T07:24:20;101498.59;;;7.48;100.00
12247;BME280;6186;52.022;4.692;2022-12-19T07:26:46;101498.59;;;7.49;100.00
12247;BME280;6186;52.022;4.692;2022-12-19T07:29:12;101500.34;;;7.46;100.00
12247;BME280;6186;52.022;4.692;2022-12-19T07:31:38;101496.88;;;7.47;100.00
12247;BME280;6186;52.022;4.692;2022-12-19T07:34:03;101501.22;;;7.49;100.00
12247;BME280;6186;52.022;4.692;2022-12-19T07:36:29;101506.47;;;7.54;100.00
12247;BME280;6186;52.022;4.692;2022-12-19T07:38:54;101509.94;;;7.56;100.00
12247;BME280;6186;52.022;4.692;2022-12-19T07:41:19;101513.44;;;7.58;100.00
12247;BME280;6186;52.022;4.692;2022-12-19T07:43:45;101518.66;;;7.59;100.00
12247;BME280;6186;52.022;4.692;2022-12-19T07:46:11;101507.31;;;7.57;100.00
12247;BME280;6186;52.022;4.692;2022-12-19T07:48:36;101528.28;;;7.63;100.00
12247;BME280;6186;52.022;4.692;2022-12-19T07:51:05;101523.91;;;7.66;100.00
12247;BME280;6186;52.022;4.692;2022-12-19T07:53:30;101519.53;;;7.66;100.00
12247;BME280;6186;52.022;4.692;2022-12-19T07:55:56;101522.16;;;7.68;100.00
12247;BME280;6186;52.022;4.692;2022-12-19T07:58:22;101530.00;;;7.69;100.00
12247;BME280;6186;52.022;4.692;2022-12-19T08:00:57;101526.53;;;7.70;100.00
12247;BME280;6186;52.022;4.692;2022-12-19T08:03:23;101536.97;;;7.73;100.00
12247;BME280;6186;52.022;4.692;2022-12-19T08:05:49;101538.75;;;7.76;100.00
12247;BME280;6186;52.022;4.692;2022-12-19T08:08:15;101538.72;;;7.77;100.00
12247;BME280;6186;52.022;4.692;2022-12-19T08:10:41;101543.09;;;7.80;100.00
12247;BME280;6186;52.022;4.692;2022-12-19T08:13:06;101533.47;;;7.80;100.00
12247;BME280;6186;52.022;4.692;2022-12-19T08:15:31;101536.09;;;7.77;100.00
12247;BME280;6186;52.022;4.692;2022-12-19T08:17:57;101539.59;;;7.81;100.00
12247;BME280;6186;52.022;4.692;2022-12-19T08:20:22;101536.06;;;7.82;100.00
12247;BME280;6186;52.022;4.692;2022-12-19T08:22:47;101529.13;;;7.79;100.00
12247;BME280;6186;52.022;4.692;2022-12-19T08:25:13;101543.97;;;7.83;100.00
12247;BME280;6186;52.022;4.692;2022-12-19T08:27:38;101537.81;;;7.84;100.00
12247;BME280;6186;52.022;4.692;2022-12-19T08:30:04;101543.94;;;7.86;100.00
12247;BME280;6186;52.022;4.692;2022-12-19T08:32:29;101547.44;;;7.88;100.00
12247;BME280;6186;52.022;4.692;2022-12-19T08:34:55;101543.06;;;7.86;100.00
12247;BME280;6186;52.022;4.692;2022-12-19T08:37:21;101548.28;;;7.86;100.00
12247;BME280;6186;52.022;4.692;2022-12-19T08:39:46;101539.56;;;7.87;100.00
12247;BME280;6186;52.022;4.692;2022-12-19T08:42:12;101547.41;;;7.94;100.00
12247;BME280;6186;52.022;4.692;2022-12-19T08:44:37;101553.53;;;7.95;100.00
12247;BME280;6186;52.022;4.692;2022-12-19T08:47:02;101558.75;;;7.98;100.00
12247;BME280;6186;52.022;4.692;2022-12-19T08:49:28;101552.63;;;7.99;100.00
12247;BME280;6186;52.022;4.692;2022-12-19T08:51:54;101548.25;;;8.01;100.00
12247;BME280;6186;52.022;4.692;2022-12-19T08:54:19;101549.13;;;8.01;100.00
12247;BME280;6186;52.022;4.692;2022-12-19T08:56:45;101552.66;;;8.00;100.00
12247;BME280;6186;52.022;4.692;2022-12-19T08:59:10;101563.97;;;8.01;100.00
12247;BME280;6186;52.022;4.692;2022-12-19T09:01:35;101549.13;;;7.97;100.00
12247;BME280;6186;52.022;4.692;2022-12-19T09:04:01;101553.50;;;8.01;100.00
12247;BME280;6186;52.022;4.692;2022-12-19T09:06:26;101550.88;;;8.02;100.00
12247;BME280;6186;52.022;4.692;2022-12-19T09:08:53;101546.50;;;8.03;100.00
12247;BME280;6186;52.022;4.692;2022-12-19T09:11:19;101543.00;;;8.04;100.00
12247;BME280;6186;52.022;4.692;2022-12-19T09:13:45;101557.00;;;8.01;100.00
12247;BME280;6186;52.022;4.692;2022-12-19T09:16:14;101551.75;;;8.06;100.00
12247;BME280;6186;52.022;4.692;2022-12-19T09:18:41;101547.38;;;8.05;100.00
12247;BME280;6186;52.022;4.692;2022-12-19T09:21:08;101565.72;;;8.05;100.00
12247;BME280;6186;52.022;4.692;2022-12-19T09:23:34;101567.47;;;8.07;100.00
12247;BME280;6186;52.022;4.692;2022-12-19T09:26:06;101560.47;;;8.08;100.00
12247;BME280;6186;52.022;4.692;2022-12-19T09:28:32;101560.47;;;8.09;100.00
12247;BME280;6186;52.022;4.692;2022-12-19T09:31:03;101570.94;;;8.11;100.00
12247;BME280;6186;52.022;4.692;2022-12-19T09:33:32;101549.13;;;8.01;100.00
12247;BME280;6186;52.022;4.692;2022-12-19T09:35:58;101570.06;;;8.15;100.00
12247;BME280;6186;52.022;4.692;2022-12-19T09:38:25;101565.69;;;8.11;100.00
12247;BME280;6186;52.022;4.692;2022-12-19T09:46:19;101570.03;;;8.22;100.00
12247;BME280;6186;52.022;4.692;2022-12-19T09:48:53;101575.28;;;8.25;100.00
12247;BME280;6186;52.022;4.692;2022-12-19T09:51:31;101570.91;;;8.26;100.00
12247;BME280;6186;52.022;4.692;2022-12-19T09:54:15;101565.66;;;8.27;100.00
12247;BME280;6186;52.022;4.692;2022-12-19T09:56:43;101554.28;;;8.31;100.00
12247;BME280;6186;52.022;4.692;2022-12-19T10:04:48;101562.09;;;8.40;100.00
12247;BME280;6186;52.022;4.692;2022-12-19T10:07:17;101556.00;;;8.40;100.00
12247;BME280;6186;52.022;4.692;2022-12-19T10:09:43;101568.22;;;8.45;100.00
12247;BME280;6186;52.022;4.692;2022-12-19T10:25:48;101566.44;;;8.50;100.00
12247;BME280;6186;52.022;4.692;2022-12-19T10:31:07;101571.69;;;8.50;100.00
12247;BME280;6186;52.022;4.692;2022-12-19T10:36:09;101572.56;;;8.51;100.00
12247;BME280;6186;52.022;4.692;2022-12-19T10:41:21;101564.69;;;8.51;100.00
12247;BME280;6186;52.022;4.692;2022-12-19T10:44:04;101564.66;;;8.52;100.00
12247;BME280;6186;52.022;4.692;2022-12-19T10:49:10;101556.78;;;8.54;100.00
12247;BME280;6186;52.022;4.692;2022-12-19T10:51:37;101548.03;;;8.58;100.00
12247;BME280;6186;52.022;4.692;2022-12-19T10:54:02;101554.16;;;8.59;100.00
12247;BME280;6186;52.022;4.692;2022-12-19T10:56:29;101549.78;;;8.61;100.00
12247;BME280;6186;52.022;4.692;2022-12-19T10:58:57;101552.38;;;8.62;100.00
12247;BME280;6186;52.022;4.692;2022-12-19T11:01:33;101541.88;;;8.64;100.00
12247;BME280;6186;52.022;4.692;2022-12-19T11:12:14;101537.44;;;8.76;100.00
12247;BME280;6186;52.022;4.692;2022-12-19T11:14:43;101527.75;;;8.78;100.00
12247;BME280;6186;52.022;4.692;2022-12-19T11:19:56;101547.88;;;8.82;100.00
12247;BME280;6186;52.022;4.692;2022-12-19T11:22:30;101542.59;;;8.85;100.00
12247;BME280;6186;52.022;4.692;2022-12-19T11:24:57;101535.59;;;8.84;100.00
12247;BME280;6186;52.022;4.692;2022-12-19T11:32:45;101545.16;;;8.94;100.00
12247;BME280;6186;52.022;4.692;2022-12-19T11:35:25;101536.38;;;8.95;100.00
12247;BME280;6186;52.022;4.692;2022-12-19T11:37:59;101557.41;;;8.97;100.00
12247;BME280;6186;52.022;4.692;2022-12-19T11:40:32;101545.13;;;8.97;100.00
12247;BME280;6186;52.022;4.692;2022-12-19T11:43:09;101541.63;;;8.98;100.00
12247;BME280;6186;52.022;4.692;2022-12-19T11:45:57;101523.25;;;8.95;100.00
12247;BME280;6186;52.022;4.692;2022-12-19T11:48:42;101524.94;;;9.05;100.00
12247;BME280;6186;52.022;4.692;2022-12-19T11:51:24;101529.31;;;9.08;100.00
12247;BME280;6186;52.022;4.692;2022-12-19T11:56:35;101525.78;;;9.09;100.00
12247;BME280;6186;52.022;4.692;2022-12-19T11:59:10;101530.19;;;9.08;100.00
12247;BME280;6186;52.022;4.692;2022-12-19T12:01:41;101531.03;;;9.09;100.00
12247;BME280;6186;52.022;4.692;2022-12-19T12:06:55;101513.56;;;9.08;100.00
12247;BME280;6186;52.022;4.692;2022-12-19T12:09:42;101517.06;;;9.08;100.00
12247;BME280;6186;52.022;4.692;2022-12-19T12:17:47;101503.94;;;9.08;100.00
12247;BME280;6186;52.022;4.692;2022-12-19T12:29:14;101486.31;;;9.18;100.00
12247;BME280;6186;52.022;4.692;2022-12-19T12:45:53;101476.66;;;9.23;100.00
12247;BME280;6186;52.022;4.692;2022-12-19T12:48:59;101472.25;;;9.25;100.00
12247;BME280;6186;52.022;4.692;2022-12-19T12:51:27;101471.34;;;9.26;100.00
12247;BME280;6186;52.022;4.692;2022-12-19T12:54:04;101460.81;;;9.27;100.00
12247;BME280;6186;52.022;4.692;2022-12-19T12:56:32;101438.19;;;9.17;100.00
12247;BME280;6186;52.022;4.692;2022-12-19T12:59:25;101453.81;;;9.31;100.00
12247;BME280;6186;52.022;4.692;2022-12-19T13:01:54;101456.41;;;9.29;100.00
12247;BME280;6186;52.022;4.692;2022-12-19T13:04:25;101451.13;;;9.34;100.00
12247;BME280;6186;52.022;4.692;2022-12-19T13:12:12;101455.50;;;9.36;100.00
12247;BME280;6186;52.022;4.692;2022-12-19T13:22:44;101434.34;;;9.47;100.00
12247;BME280;6186;52.022;4.692;2022-12-19T13:28:35;101426.47;;;9.47;100.00
12247;BME280;6186;52.022;4.692;2022-12-19T13:42:33;101406.16;;;9.61;100.00
12247;BME280;6186;52.022;4.692;2022-12-19T13:45:29;101407.88;;;9.64;100.00
12247;BME280;6186;52.022;4.692;2022-12-19T13:47:57;101411.34;;;9.66;100.00
12247;BME280;6186;52.022;4.692;2022-12-19T13:50:38;101410.47;;;9.67;100.00
12247;BME280;6186;52.022;4.692;2022-12-19T13:53:13;101412.22;;;9.66;100.00
12247;BME280;6186;52.022;4.692;2022-12-19T13:55:39;101398.19;;;9.69;100.00
12247;BME280;6186;52.022;4.692;2022-12-19T13:58:04;101389.41;;;9.68;100.00
12247;BME280;6186;52.022;4.692;2022-12-19T14:00:35;101405.19;;;9.68;100.00
12247;BME280;6186;52.022;4.692;2022-12-19T14:03:14;101393.78;;;9.69;100.00
12247;BME280;6186;52.022;4.692;2022-12-19T14:05:41;101386.81;;;9.67;100.00
12247;BME280;6186;52.022;4.692;2022-12-19T14:08:08;101379.75;;;9.70;100.00
12247;BME280;6186;52.022;4.692;2022-12-19T14:10:42;101375.41;;;9.68;100.00
12247;BME280;6186;52.022;4.692;2022-12-19T14:13:13;101371.84;;;9.72;100.00
12247;BME280;6186;52.022;4.692;2022-12-19T14:15:59;101374.44;;;9.73;100.00
12247;BME280;6186;52.022;4.692;2022-12-19T14:18:27;101382.31;;;9.75;100.00
12247;BME280;6186;52.022;4.692;2022-12-19T14:23:36;101382.31;;;9.76;100.00
12247;BME280;6186;52.022;4.692;2022-12-19T14:26:02;101386.72;;;9.74;100.00
12247;BME280;6186;52.022;4.692;2022-12-19T14:31:05;101384.03;;;9.77;100.00
12247;BME280;6186;52.022;4.692;2022-12-19T14:33:35;101395.44;;;9.75;100.00
12247;BME280;6186;52.022;4.692;2022-12-19T14:36:02;101402.44;;;9.77;100.00
12247;BME280;6186;52.022;4.692;2022-12-19T14:38:30;101410.34;;;9.76;100.00
12247;BME280;6186;52.022;4.692;2022-12-19T14:40:58;101408.66;;;9.72;100.00
12247;BME280;6186;52.022;4.692;2022-12-19T14:43:25;101418.28;;;9.71;100.00
12247;BME280;6186;52.022;4.692;2022-12-19T14:48:58;101427.94;;;9.71;100.00
12247;BME280;6186;52.022;4.692;2022-12-19T14:51:31;101436.69;;;9.73;100.00
12247;BME280;6186;52.022;4.692;2022-12-19T15:01:52;101429.63;;;9.75;100.00
12247;BME280;6186;52.022;4.692;2022-12-19T15:04:21;101422.63;;;9.75;100.00
12247;BME280;6186;52.022;4.692;2022-12-19T15:06:48;101428.75;;;9.76;100.00
12247;BME280;6186;52.022;4.692;2022-12-19T15:09:16;101431.38;;;9.76;100.00
12247;BME280;6186;52.022;4.692;2022-12-19T15:11:44;101421.75;;;9.76;100.00
12247;BME280;6186;52.022;4.692;2022-12-19T15:14:41;101427.06;;;9.70;100.00
12247;BME280;6186;52.022;4.692;2022-12-19T15:17:18;101426.13;;;9.76;100.00
12247;BME280;6186;52.022;4.692;2022-12-19T15:19:44;101413.88;;;9.73;100.00
12247;BME280;6186;52.022;4.692;2022-12-19T15:22:09;101395.53;;;9.70;100.00
12247;BME280;6186;52.022;4.692;2022-12-19T15:24:34;101408.59;;;9.75;100.00
12247;BME280;6186;52.022;4.692;2022-12-19T15:27:00;101418.25;;;9.74;100.00
12247;BME280;6186;52.022;4.692;2022-12-19T15:29:26;101420.00;;;9.74;100.00
12247;BME280;6186;52.022;4.692;2022-12-19T15:31:51;101422.66;;;9.74;100.00
12247;BME280;6186;52.022;4.692;2022-12-19T15:34:21;101413.91;;;9.72;100.00
12247;BME280;6186;52.022;4.692;2022-12-19T15:36:47;101415.69;;;9.70;100.00
12247;BME280;6186;52.022;4.692;2022-12-19T15:39:12;101421.84;;;9.67;100.00
12247;BME280;6186;52.022;4.692;2022-12-19T15:41:40;101421.84;;;9.66;100.00
12247;BME280;6186;52.022;4.692;2022-12-19T15:44:08;101410.50;;;9.64;100.00
12247;BME280;6186;52.022;4.692;2022-12-19T15:46:34;101402.63;;;9.62;100.00
12247;BME280;6186;52.022;4.692;2022-12-19T15:49:00;101401.78;;;9.60;100.00